sensor_id;sensor_type;location;lat;lon;timestamp;temperature;humidity
1391;DHT22;690;51.454;7.194;2022-07-29T00:01:34;20.80;99.90
1391;DHT22;690;51.454;7.194;2022-07-29T00:04:01;20.70;99.90
1391;DHT22;690;51.454;7.194;2022-07-29T00:06:29;20.70;99.90
1391;DHT22;690;51.454;7.194;2022-07-29T00:08:56;20.70;99.90
1391;DHT22;690;51.454;7.194;2022-07-29T00:11:23;20.70;99.90
1391;DHT22;690;51.454;7.194;2022-07-29T00:13:50;20.60;99.90
1391;DHT22;690;51.454;7.194;2022-07-29T00:16:18;20.60;99.90
1391;DHT22;690;51.454;7.194;2022-07-29T00:18:45;20.60;99.90
1391;DHT22;690;51.454;7.194;2022-07-29T00:21:12;20.60;99.90
1391;DHT22;690;51.454;7.194;2022-07-29T00:23:40;20.50;99.90
1391;DHT22;690;51.454;7.194;2022-07-29T00:26:08;20.50;99.90
1391;DHT22;690;51.454;7.194;2022-07-29T00:28:35;20.40;99.90
1391;DHT22;690;51.454;7.194;2022-07-29T00:31:02;20.40;99.90
1391;DHT22;690;51.454;7.194;2022-07-29T00:33:29;20.40;99.90
1391;DHT22;690;51.454;7.194;2022-07-29T00:35:56;20.40;99.90
1391;DHT22;690;51.454;7.194;2022-07-29T00:38:22;20.40;99.90
1391;DHT22;690;51.454;7.194;2022-07-29T00:40:51;20.40;99.90
1391;DHT22;690;51.454;7.194;2022-07-29T00:43:18;20.40;99.90
1391;DHT22;690;51.454;7.194;2022-07-29T00:45:45;20.40;99.90
1391;DHT22;690;51.454;7.194;2022-07-29T00:48:13;20.40;99.90
1391;DHT22;690;51.454;7.194;2022-07-29T00:50:41;20.40;99.90
1391;DHT22;690;51.454;7.194;2022-07-29T00:53:08;20.40;99.90
1391;DHT22;690;51.454;7.194;2022-07-29T00:55:37;20.40;99.90
1391;DHT22;690;51.454;7.194;2022-07-29T00:58:06;20.40;99.90
1391;DHT22;690;51.454;7.194;2022-07-29T01:00:33;20.40;99.90
1391;DHT22;690;51.454;7.194;2022-07-29T01:03:00;20.40;99.90
1391;DHT22;690;51.454;7.194;2022-07-29T01:05:28;20.40;99.90
1391;DHT22;690;51.454;7.194;2022-07-29T01:07:56;20.40;99.90
1391;DHT22;690;51.454;7.194;2022-07-29T01:10:24;20.30;99.90
1391;DHT22;690;51.454;7.194;2022-07-29T01:12:54;20.30;99.90
1391;DHT22;690;51.454;7.194;2022-07-29T01:15:25;20.30;99.90
1391;DHT22;690;51.454;7.194;2022-07-29T01:17:56;20.20;99.90
1391;DHT22;690;51.454;7.194;2022-07-29T01:20:31;20.20;99.90
1391;DHT22;690;51.454;7.194;2022-07-29T01:23:36;20.10;99.90
1391;DHT22;690;51.454;7.194;2022-07-29T01:26:28;20.10;99.90
1391;DHT22;690;51.454;7.194;2022-07-29T01:29:03;20.10;99.90
1391;DHT22;690;51.454;7.194;2022-07-29T01:31:35;20.00;99.90
1391;DHT22;690;51.454;7.194;2022-07-29T01:34:07;20.00;99.90
1391;DHT22;690;51.454;7.194;2022-07-29T01:36:40;20.00;99.90
1391;DHT22;690;51.454;7.194;2022-07-29T01:39:14;19.90;99.90
1391;DHT22;690;51.454;7.194;2022-07-29T01:41:49;19.90;99.90
1391;DHT22;690;51.454;7.194;2022-07-29T01:44:22;19.90;99.90
1391;DHT22;690;51.454;7.194;2022-07-29T01:46:56;19.80;99.90
1391;DHT22;690;51.454;7.194;2022-07-29T01:49:27;19.80;99.90
1391;DHT22;690;51.454;7.194;2022-07-29T01:51:59;19.80;99.90
1391;DHT22;690;51.454;7.194;2022-07-29T01:54:32;19.80;99.90
1391;DHT22;690;51.454;7.194;2022-07-29T01:57:01;19.80;99.90
1391;DHT22;690;51.454;7.194;2022-07-29T01:59:33;19.70;99.90
1391;DHT22;690;51.454;7.194;2022-07-29T02:02:01;19.70;99.90
1391;DHT22;690;51.454;7.194;2022-07-29T02:04:29;19.70;99.90
1391;DHT22;690;51.454;7.194;2022-07-29T02:07:03;19.70;99.90
1391;DHT22;690;51.454;7.194;2022-07-29T02:09:33;19.70;99.90
1391;DHT22;690;51.454;7.194;2022-07-29T02:12:03;19.70;99.90
1391;DHT22;690;51.454;7.194;2022-07-29T02:14:36;19.60;99.90
1391;DHT22;690;51.454;7.194;2022-07-29T02:17:03;19.60;99.90
1391;DHT22;690;51.454;7.194;2022-07-29T02:19:32;19.50;99.90
1391;DHT22;690;51.454;7.194;2022-07-29T02:22:01;19.50;99.90
1391;DHT22;690;51.454;7.194;2022-07-29T02:24:29;19.50;99.90
1391;DHT22;690;51.454;7.194;2022-07-29T02:26:59;19.40;99.90
1391;DHT22;690;51.454;7.194;2022-07-29T02:29:28;19.40;99.90
1391;DHT22;690;51.454;7.194;2022-07-29T02:31:59;19.40;99.90
1391;DHT22;690;51.454;7.194;2022-07-29T02:34:28;19.40;99.90
1391;DHT22;690;51.454;7.194;2022-07-29T02:36:56;19.40;99.90
1391;DHT22;690;51.454;7.194;2022-07-29T02:39:24;19.40;99.90
1391;DHT22;690;51.454;7.194;2022-07-29T02:41:55;19.40;99.90
1391;DHT22;690;51.454;7.194;2022-07-29T02:44:26;19.40;99.90
1391;DHT22;690;51.454;7.194;2022-07-29T02:46:58;19.40;99.90
1391;DHT22;690;51.454;7.194;2022-07-29T02:49:34;19.40;99.90
1391;DHT22;690;51.454;7.194;2022-07-29T02:52:05;19.40;99.90
1391;DHT22;690;51.454;7.194;2022-07-29T02:54:37;19.30;99.90
1391;DHT22;690;51.454;7.194;2022-07-29T02:57:11;19.30;99.90
1391;DHT22;690;51.454;7.194;2022-07-29T02:59:41;19.30;99.90
1391;DHT22;690;51.454;7.194;2022-07-29T03:02:12;19.30;99.90
1391;DHT22;690;51.454;7.194;2022-07-29T03:04:42;19.30;99.90
1391;DHT22;690;51.454;7.194;2022-07-29T03:07:11;19.20;99.90
1391;DHT22;690;51.454;7.194;2022-07-29T03:09:40;19.20;99.90
1391;DHT22;690;51.454;7.194;2022-07-29T03:12:08;19.20;99.90
1391;DHT22;690;51.454;7.194;2022-07-29T03:14:37;19.20;99.90
1391;DHT22;690;51.454;7.194;2022-07-29T03:17:05;19.20;99.90
1391;DHT22;690;51.454;7.194;2022-07-29T03:19:34;19.20;99.90
1391;DHT22;690;51.454;7.194;2022-07-29T03:22:02;19.20;99.90
1391;DHT22;690;51.454;7.194;2022-07-29T03:24:31;19.10;99.90
1391;DHT22;690;51.454;7.194;2022-07-29T03:26:58;19.10;99.90
1391;DHT22;690;51.454;7.194;2022-07-29T03:29:26;19.10;99.90
1391;DHT22;690;51.454;7.194;2022-07-29T03:31:53;19.10;99.90
1391;DHT22;690;51.454;7.194;2022-07-29T03:34:20;19.10;99.90
1391;DHT22;690;51.454;7.194;2022-07-29T03:36:49;19.10;99.90
1391;DHT22;690;51.454;7.194;2022-07-29T03:39:21;19.00;99.90
1391;DHT22;690;51.454;7.194;2022-07-29T03:41:53;19.00;99.90
1391;DHT22;690;51.454;7.194;2022-07-29T03:44:22;19.00;99.90
1391;DHT22;690;51.454;7.194;2022-07-29T03:46:52;19.00;99.90
1391;DHT22;690;51.454;7.194;2022-07-29T03:49:21;19.00;99.90
1391;DHT22;690;51.454;7.194;2022-07-29T03:51:52;19.00;99.90
1391;DHT22;690;51.454;7.194;2022-07-29T03:54:19;19.00;99.90
1391;DHT22;690;51.454;7.194;2022-07-29T03:56:47;18.90;99.90
1391;DHT22;690;51.454;7.194;2022-07-29T03:59:17;18.90;99.90
1391;DHT22;690;51.454;7.194;2022-07-29T04:01:46;18.80;99.90
1391;DHT22;690;51.454;7.194;2022-07-29T04:04:13;18.80;99.90
1391;DHT22;690;51.454;7.194;2022-07-29T04:06:41;18.80;99.90
1391;DHT22;690;51.454;7.194;2022-07-29T04:09:10;18.80;99.90
1391;DHT22;690;51.454;7.194;2022-07-29T04:11:38;18.80;99.90
1391;DHT22;690;51.454;7.194;2022-07-29T04:14:06;18.80;99.90
1391;DHT22;690;51.454;7.194;2022-07-29T04:16:33;18.80;99.90
1391;DHT22;690;51.454;7.194;2022-07-29T04:19:00;18.80;99.90
1391;DHT22;690;51.454;7.194;2022-07-29T04:21:27;18.90;99.90
1391;DHT22;690;51.454;7.194;2022-07-29T04:23:54;19.00;99.90
1391;DHT22;690;51.454;7.194;2022-07-29T04:26:23;18.90;99.90
1391;DHT22;690;51.454;7.194;2022-07-29T04:28:50;19.00;99.90
1391;DHT22;690;51.454;7.194;2022-07-29T04:31:17;19.00;99.90
1391;DHT22;690;51.454;7.194;2022-07-29T04:33:44;19.00;99.90
1391;DHT22;690;51.454;7.194;2022-07-29T04:36:11;19.00;99.90
1391;DHT22;690;51.454;7.194;2022-07-29T04:38:38;19.00;99.90
1391;DHT22;690;51.454;7.194;2022-07-29T04:41:05;19.00;99.90
1391;DHT22;690;51.454;7.194;2022-07-29T04:43:36;19.00;99.90
1391;DHT22;690;51.454;7.194;2022-07-29T04:46:03;19.00;99.90
1391;DHT22;690;51.454;7.194;2022-07-29T04:48:30;19.00;99.90
1391;DHT22;690;51.454;7.194;2022-07-29T04:50:57;18.90;99.90
1391;DHT22;690;51.454;7.194;2022-07-29T04:53:25;18.80;99.90
1391;DHT22;690;51.454;7.194;2022-07-29T04:55:52;18.80;99.90
1391;DHT22;690;51.454;7.194;2022-07-29T04:58:19;18.70;99.90
1391;DHT22;690;51.454;7.194;2022-07-29T05:00:50;18.70;99.90
1391;DHT22;690;51.454;7.194;2022-07-29T05:03:17;18.60;99.90
1391;DHT22;690;51.454;7.194;2022-07-29T05:05:44;18.50;99.90
1391;DHT22;690;51.454;7.194;2022-07-29T05:08:11;18.40;99.90
1391;DHT22;690;51.454;7.194;2022-07-29T05:10:38;18.40;99.90
1391;DHT22;690;51.454;7.194;2022-07-29T05:13:05;18.30;99.90
1391;DHT22;690;51.454;7.194;2022-07-29T05:15:33;18.30;99.90
1391;DHT22;690;51.454;7.194;2022-07-29T05:18:01;18.20;99.90
1391;DHT22;690;51.454;7.194;2022-07-29T05:20:29;18.20;99.90
1391;DHT22;690;51.454;7.194;2022-07-29T05:22:57;18.20;99.90
1391;DHT22;690;51.454;7.194;2022-07-29T05:25:25;18.20;99.90
1391;DHT22;690;51.454;7.194;2022-07-29T05:27:53;18.20;99.90
1391;DHT22;690;51.454;7.194;2022-07-29T05:30:21;18.20;99.90
1391;DHT22;690;51.454;7.194;2022-07-29T05:32:48;18.10;99.90
1391;DHT22;690;51.454;7.194;2022-07-29T05:35:17;18.20;99.90
1391;DHT22;690;51.454;7.194;2022-07-29T05:37:44;18.20;99.90
1391;DHT22;690;51.454;7.194;2022-07-29T05:40:11;18.30;99.90
1391;DHT22;690;51.454;7.194;2022-07-29T05:42:38;18.40;99.90
1391;DHT22;690;51.454;7.194;2022-07-29T05:45:06;18.40;99.90
1391;DHT22;690;51.454;7.194;2022-07-29T05:47:33;18.40;99.90
1391;DHT22;690;51.454;7.194;2022-07-29T05:50:00;18.40;99.90
1391;DHT22;690;51.454;7.194;2022-07-29T05:52:28;18.30;99.90
1391;DHT22;690;51.454;7.194;2022-07-29T05:54:55;18.30;99.90
1391;DHT22;690;51.454;7.194;2022-07-29T05:57:24;18.30;99.90
1391;DHT22;690;51.454;7.194;2022-07-29T05:59:51;18.30;99.90
1391;DHT22;690;51.454;7.194;2022-07-29T06:02:18;18.20;99.90
1391;DHT22;690;51.454;7.194;2022-07-29T06:04:45;18.10;99.90
1391;DHT22;690;51.454;7.194;2022-07-29T06:07:12;18.20;99.90
1391;DHT22;690;51.454;7.194;2022-07-29T06:09:41;18.20;99.90
1391;DHT22;690;51.454;7.194;2022-07-29T06:12:09;18.20;99.90
1391;DHT22;690;51.454;7.194;2022-07-29T06:14:36;18.20;99.90
1391;DHT22;690;51.454;7.194;2022-07-29T06:17:04;18.20;99.90
1391;DHT22;690;51.454;7.194;2022-07-29T06:19:33;18.30;99.90
1391;DHT22;690;51.454;7.194;2022-07-29T06:22:00;18.30;99.90
1391;DHT22;690;51.454;7.194;2022-07-29T06:24:27;18.40;99.90
1391;DHT22;690;51.454;7.194;2022-07-29T06:26:56;18.40;99.90
1391;DHT22;690;51.454;7.194;2022-07-29T06:29:23;18.50;99.90
1391;DHT22;690;51.454;7.194;2022-07-29T06:31:51;18.60;99.90
1391;DHT22;690;51.454;7.194;2022-07-29T06:34:18;18.70;99.90
1391;DHT22;690;51.454;7.194;2022-07-29T06:36:45;18.70;99.90
1391;DHT22;690;51.454;7.194;2022-07-29T06:39:12;18.70;99.90
1391;DHT22;690;51.454;7.194;2022-07-29T06:41:39;18.80;99.90
1391;DHT22;690;51.454;7.194;2022-07-29T06:44:07;18.90;99.90
1391;DHT22;690;51.454;7.194;2022-07-29T06:46:34;18.90;99.90
1391;DHT22;690;51.454;7.194;2022-07-29T06:49:01;19.00;99.90
1391;DHT22;690;51.454;7.194;2022-07-29T06:51:29;19.00;99.90
1391;DHT22;690;51.454;7.194;2022-07-29T06:53:56;19.00;99.90
1391;DHT22;690;51.454;7.194;2022-07-29T06:56:24;19.10;99.90
1391;DHT22;690;51.454;7.194;2022-07-29T06:58:51;19.20;99.90
1391;DHT22;690;51.454;7.194;2022-07-29T07:01:20;19.30;99.90
1391;DHT22;690;51.454;7.194;2022-07-29T07:03:47;19.40;99.90
1391;DHT22;690;51.454;7.194;2022-07-29T07:06:14;19.60;99.90
1391;DHT22;690;51.454;7.194;2022-07-29T07:08:42;19.60;99.90
1391;DHT22;690;51.454;7.194;2022-07-29T07:11:09;19.60;99.90
1391;DHT22;690;51.454;7.194;2022-07-29T07:13:36;19.80;99.90
1391;DHT22;690;51.454;7.194;2022-07-29T07:16:04;19.70;99.90
1391;DHT22;690;51.454;7.194;2022-07-29T07:18:32;19.80;99.90
1391;DHT22;690;51.454;7.194;2022-07-29T07:20:59;19.90;99.90
1391;DHT22;690;51.454;7.194;2022-07-29T07:23:27;19.90;99.90
1391;DHT22;690;51.454;7.194;2022-07-29T07:25:53;20.00;99.90
1391;DHT22;690;51.454;7.194;2022-07-29T07:28:21;20.00;99.90
1391;DHT22;690;51.454;7.194;2022-07-29T07:30:48;20.10;99.90
1391;DHT22;690;51.454;7.194;2022-07-29T07:33:15;20.20;99.90
1391;DHT22;690;51.454;7.194;2022-07-29T07:35:43;20.20;99.90
1391;DHT22;690;51.454;7.194;2022-07-29T07:38:10;20.30;99.90
1391;DHT22;690;51.454;7.194;2022-07-29T07:40:38;20.40;99.90
1391;DHT22;690;51.454;7.194;2022-07-29T07:43:05;20.50;99.90
1391;DHT22;690;51.454;7.194;2022-07-29T07:45:32;20.60;99.90
1391;DHT22;690;51.454;7.194;2022-07-29T07:47:59;20.80;99.90
1391;DHT22;690;51.454;7.194;2022-07-29T07:50:26;20.80;99.90
1391;DHT22;690;51.454;7.194;2022-07-29T07:52:55;20.90;99.90
1391;DHT22;690;51.454;7.194;2022-07-29T07:55:23;21.00;99.90
1391;DHT22;690;51.454;7.194;2022-07-29T07:57:51;21.10;99.90
1391;DHT22;690;51.454;7.194;2022-07-29T08:00:18;21.20;99.90
1391;DHT22;690;51.454;7.194;2022-07-29T08:02:45;21.30;99.90
1391;DHT22;690;51.454;7.194;2022-07-29T08:05:13;21.40;99.90
1391;DHT22;690;51.454;7.194;2022-07-29T08:07:43;21.40;99.90
1391;DHT22;690;51.454;7.194;2022-07-29T08:10:12;21.50;99.90
1391;DHT22;690;51.454;7.194;2022-07-29T08:12:39;21.50;99.90
1391;DHT22;690;51.454;7.194;2022-07-29T08:15:18;21.60;99.90
1391;DHT22;690;51.454;7.194;2022-07-29T08:17:48;21.70;99.90
1391;DHT22;690;51.454;7.194;2022-07-29T08:20:15;21.80;99.90
1391;DHT22;690;51.454;7.194;2022-07-29T08:22:43;21.80;99.90
1391;DHT22;690;51.454;7.194;2022-07-29T08:25:12;21.90;99.90
1391;DHT22;690;51.454;7.194;2022-07-29T08:27:54;22.00;99.90
1391;DHT22;690;51.454;7.194;2022-07-29T08:30:21;22.00;99.90
1391;DHT22;690;51.454;7.194;2022-07-29T08:32:48;22.00;99.90
1391;DHT22;690;51.454;7.194;2022-07-29T08:35:22;22.00;99.90
1391;DHT22;690;51.454;7.194;2022-07-29T08:37:49;22.00;99.90
1391;DHT22;690;51.454;7.194;2022-07-29T08:40:18;22.10;99.90
1391;DHT22;690;51.454;7.194;2022-07-29T08:42:46;22.10;99.90
1391;DHT22;690;51.454;7.194;2022-07-29T08:45:13;22.10;99.90
1391;DHT22;690;51.454;7.194;2022-07-29T08:47:40;22.10;99.90
1391;DHT22;690;51.454;7.194;2022-07-29T08:50:07;22.10;99.90
1391;DHT22;690;51.454;7.194;2022-07-29T08:52:36;22.10;99.90
1391;DHT22;690;51.454;7.194;2022-07-29T08:55:04;22.10;99.90
1391;DHT22;690;51.454;7.194;2022-07-29T08:57:34;21.90;99.90
1391;DHT22;690;51.454;7.194;2022-07-29T09:00:04;21.90;99.90
1391;DHT22;690;51.454;7.194;2022-07-29T09:02:36;21.80;99.90
1391;DHT22;690;51.454;7.194;2022-07-29T09:05:06;21.80;99.90
1391;DHT22;690;51.454;7.194;2022-07-29T09:07:34;21.70;99.90
1391;DHT22;690;51.454;7.194;2022-07-29T09:10:04;21.60;99.90
1391;DHT22;690;51.454;7.194;2022-07-29T09:12:33;21.60;99.90
1391;DHT22;690;51.454;7.194;2022-07-29T09:15:00;21.60;99.90
1391;DHT22;690;51.454;7.194;2022-07-29T09:17:40;21.50;99.90
1391;DHT22;690;51.454;7.194;2022-07-29T09:20:11;21.50;99.90
1391;DHT22;690;51.454;7.194;2022-07-29T09:22:39;21.40;99.90
1391;DHT22;690;51.454;7.194;2022-07-29T09:25:12;21.40;99.90
1391;DHT22;690;51.454;7.194;2022-07-29T09:27:41;21.40;99.90
1391;DHT22;690;51.454;7.194;2022-07-29T09:30:16;21.30;99.90
1391;DHT22;690;51.454;7.194;2022-07-29T09:33:15;21.30;99.90
1391;DHT22;690;51.454;7.194;2022-07-29T09:35:59;21.20;99.90
1391;DHT22;690;51.454;7.194;2022-07-29T09:38:27;21.20;99.90
1391;DHT22;690;51.454;7.194;2022-07-29T09:40:56;21.20;99.90
1391;DHT22;690;51.454;7.194;2022-07-29T09:43:25;21.20;99.90
1391;DHT22;690;51.454;7.194;2022-07-29T09:45:52;21.10;99.90
1391;DHT22;690;51.454;7.194;2022-07-29T09:48:22;21.00;99.90
1391;DHT22;690;51.454;7.194;2022-07-29T09:50:50;21.00;99.90
1391;DHT22;690;51.454;7.194;2022-07-29T09:53:31;21.00;99.90
1391;DHT22;690;51.454;7.194;2022-07-29T09:55:58;21.00;99.90
1391;DHT22;690;51.454;7.194;2022-07-29T09:58:26;21.00;99.90
1391;DHT22;690;51.454;7.194;2022-07-29T10:00:54;21.00;99.90
1391;DHT22;690;51.454;7.194;2022-07-29T10:03:22;21.10;99.90
1391;DHT22;690;51.454;7.194;2022-07-29T10:06:07;21.10;99.90
1391;DHT22;690;51.454;7.194;2022-07-29T10:08:34;21.10;99.90
1391;DHT22;690;51.454;7.194;2022-07-29T10:11:14;21.10;99.90
1391;DHT22;690;51.454;7.194;2022-07-29T10:13:45;21.00;99.90
1391;DHT22;690;51.454;7.194;2022-07-29T10:16:14;21.00;99.90
1391;DHT22;690;51.454;7.194;2022-07-29T10:18:42;20.90;99.90
1391;DHT22;690;51.454;7.194;2022-07-29T10:21:10;20.90;99.90
1391;DHT22;690;51.454;7.194;2022-07-29T10:23:38;20.90;99.90
1391;DHT22;690;51.454;7.194;2022-07-29T10:26:09;20.90;99.90
1391;DHT22;690;51.454;7.194;2022-07-29T10:28:44;20.80;99.90
1391;DHT22;690;51.454;7.194;2022-07-29T10:31:15;20.70;99.90
1391;DHT22;690;51.454;7.194;2022-07-29T10:33:52;20.70;99.90
1391;DHT22;690;51.454;7.194;2022-07-29T10:36:41;20.60;99.90
1391;DHT22;690;51.454;7.194;2022-07-29T10:39:20;20.60;99.90
1391;DHT22;690;51.454;7.194;2022-07-29T10:42:02;20.60;99.90
1391;DHT22;690;51.454;7.194;2022-07-29T10:44:58;20.70;99.90
1391;DHT22;690;51.454;7.194;2022-07-29T10:47:27;20.70;99.90
1391;DHT22;690;51.454;7.194;2022-07-29T10:49:58;20.70;99.90
1391;DHT22;690;51.454;7.194;2022-07-29T10:52:52;20.80;99.90
1391;DHT22;690;51.454;7.194;2022-07-29T10:55:31;20.80;99.90
1391;DHT22;690;51.454;7.194;2022-07-29T10:58:14;20.80;99.90
1391;DHT22;690;51.454;7.194;2022-07-29T11:00:44;20.80;99.90
1391;DHT22;690;51.454;7.194;2022-07-29T11:03:42;20.90;99.90
1391;DHT22;690;51.454;7.194;2022-07-29T11:06:11;21.00;99.90
1391;DHT22;690;51.454;7.194;2022-07-29T11:08:38;21.00;99.90
1391;DHT22;690;51.454;7.194;2022-07-29T11:11:36;21.00;99.90
1391;DHT22;690;51.454;7.194;2022-07-29T11:14:06;21.00;99.90
1391;DHT22;690;51.454;7.194;2022-07-29T11:16:59;21.00;99.90
1391;DHT22;690;51.454;7.194;2022-07-29T11:19:28;21.10;99.90
1391;DHT22;690;51.454;7.194;2022-07-29T11:21:55;21.00;99.90
1391;DHT22;690;51.454;7.194;2022-07-29T11:24:24;21.00;99.90
1391;DHT22;690;51.454;7.194;2022-07-29T11:27:14;21.10;99.90
1391;DHT22;690;51.454;7.194;2022-07-29T11:29:50;21.10;99.90
1391;DHT22;690;51.454;7.194;2022-07-29T11:32:20;21.10;99.90
1391;DHT22;690;51.454;7.194;2022-07-29T11:34:48;21.20;99.90
1391;DHT22;690;51.454;7.194;2022-07-29T11:37:20;21.20;99.90
1391;DHT22;690;51.454;7.194;2022-07-29T11:40:08;21.30;99.90
1391;DHT22;690;51.454;7.194;2022-07-29T11:42:43;21.40;99.90
1391;DHT22;690;51.454;7.194;2022-07-29T11:45:16;21.50;99.90
1391;DHT22;690;51.454;7.194;2022-07-29T11:47:50;21.60;99.90
1391;DHT22;690;51.454;7.194;2022-07-29T11:50:30;21.60;99.90
1391;DHT22;690;51.454;7.194;2022-07-29T11:52:58;21.70;99.90
1391;DHT22;690;51.454;7.194;2022-07-29T11:55:25;21.70;99.90
1391;DHT22;690;51.454;7.194;2022-07-29T11:57:53;21.80;99.90
1391;DHT22;690;51.454;7.194;2022-07-29T12:00:26;21.90;99.90
1391;DHT22;690;51.454;7.194;2022-07-29T12:02:55;22.00;99.90
1391;DHT22;690;51.454;7.194;2022-07-29T12:05:32;22.00;99.90
1391;DHT22;690;51.454;7.194;2022-07-29T12:08:12;22.00;99.90
1391;DHT22;690;51.454;7.194;2022-07-29T12:10:43;22.10;99.90
1391;DHT22;690;51.454;7.194;2022-07-29T12:13:12;22.20;99.90
1391;DHT22;690;51.454;7.194;2022-07-29T12:15:39;22.30;99.90
1391;DHT22;690;51.454;7.194;2022-07-29T12:18:12;22.40;99.90
1391;DHT22;690;51.454;7.194;2022-07-29T12:20:39;22.60;99.90
1391;DHT22;690;51.454;7.194;2022-07-29T12:23:07;22.70;99.90
1391;DHT22;690;51.454;7.194;2022-07-29T12:25:37;22.80;99.90
1391;DHT22;690;51.454;7.194;2022-07-29T12:28:06;22.90;99.90
1391;DHT22;690;51.454;7.194;2022-07-29T12:30:36;23.00;99.90
1391;DHT22;690;51.454;7.194;2022-07-29T12:33:13;23.10;99.90
1391;DHT22;690;51.454;7.194;2022-07-29T12:35:42;23.30;99.90
1391;DHT22;690;51.454;7.194;2022-07-29T12:38:10;23.30;99.90
1391;DHT22;690;51.454;7.194;2022-07-29T12:40:42;23.40;99.90
1391;DHT22;690;51.454;7.194;2022-07-29T12:43:11;23.50;99.90
1391;DHT22;690;51.454;7.194;2022-07-29T12:45:39;23.60;99.90
1391;DHT22;690;51.454;7.194;2022-07-29T12:48:07;23.70;99.90
1391;DHT22;690;51.454;7.194;2022-07-29T12:50:51;23.70;99.90
1391;DHT22;690;51.454;7.194;2022-07-29T12:53:18;23.90;99.90
1391;DHT22;690;51.454;7.194;2022-07-29T12:55:47;24.20;99.90
1391;DHT22;690;51.454;7.194;2022-07-29T12:58:27;24.40;99.90
1391;DHT22;690;51.454;7.194;2022-07-29T13:01:06;24.60;99.90
1391;DHT22;690;51.454;7.194;2022-07-29T13:03:48;24.80;99.90
1391;DHT22;690;51.454;7.194;2022-07-29T13:06:30;24.90;99.90
1391;DHT22;690;51.454;7.194;2022-07-29T13:09:04;25.00;99.90
1391;DHT22;690;51.454;7.194;2022-07-29T13:11:33;25.10;99.90
1391;DHT22;690;51.454;7.194;2022-07-29T13:14:00;25.20;99.90
1391;DHT22;690;51.454;7.194;2022-07-29T13:16:27;25.20;99.90
1391;DHT22;690;51.454;7.194;2022-07-29T13:19:09;25.30;99.90
1391;DHT22;690;51.454;7.194;2022-07-29T13:21:39;25.30;99.90
1391;DHT22;690;51.454;7.194;2022-07-29T13:24:07;25.30;99.90
1391;DHT22;690;51.454;7.194;2022-07-29T13:26:34;25.40;99.90
1391;DHT22;690;51.454;7.194;2022-07-29T13:29:02;25.50;99.90
1391;DHT22;690;51.454;7.194;2022-07-29T13:31:29;25.50;99.90
1391;DHT22;690;51.454;7.194;2022-07-29T13:33:56;25.50;99.90
1391;DHT22;690;51.454;7.194;2022-07-29T13:36:24;25.40;99.90
1391;DHT22;690;51.454;7.194;2022-07-29T13:38:53;25.30;99.90
1391;DHT22;690;51.454;7.194;2022-07-29T13:41:20;25.20;99.90
1391;DHT22;690;51.454;7.194;2022-07-29T13:43:47;25.30;99.90
1391;DHT22;690;51.454;7.194;2022-07-29T13:46:14;25.30;99.90
1391;DHT22;690;51.454;7.194;2022-07-29T13:48:41;25.40;99.90
1391;DHT22;690;51.454;7.194;2022-07-29T13:51:08;25.50;99.90
1391;DHT22;690;51.454;7.194;2022-07-29T13:53:36;25.60;99.90
1391;DHT22;690;51.454;7.194;2022-07-29T13:56:05;25.80;99.90
1391;DHT22;690;51.454;7.194;2022-07-29T13:58:32;25.90;99.90
1391;DHT22;690;51.454;7.194;2022-07-29T14:01:01;26.00;99.90
1391;DHT22;690;51.454;7.194;2022-07-29T14:03:28;26.00;99.90
1391;DHT22;690;51.454;7.194;2022-07-29T14:05:56;26.00;99.90
1391;DHT22;690;51.454;7.194;2022-07-29T14:08:25;25.90;99.90
1391;DHT22;690;51.454;7.194;2022-07-29T14:10:52;25.90;99.90
1391;DHT22;690;51.454;7.194;2022-07-29T14:13:21;25.90;99.90
1391;DHT22;690;51.454;7.194;2022-07-29T14:15:48;25.90;99.90
1391;DHT22;690;51.454;7.194;2022-07-29T14:18:15;25.80;99.90
1391;DHT22;690;51.454;7.194;2022-07-29T14:20:42;25.70;99.90
1391;DHT22;690;51.454;7.194;2022-07-29T14:23:09;25.60;99.90
1391;DHT22;690;51.454;7.194;2022-07-29T14:25:36;25.60;99.90
1391;DHT22;690;51.454;7.194;2022-07-29T14:28:03;25.70;99.90
1391;DHT22;690;51.454;7.194;2022-07-29T14:30:32;25.80;99.90
1391;DHT22;690;51.454;7.194;2022-07-29T14:32:59;25.80;99.90
1391;DHT22;690;51.454;7.194;2022-07-29T14:35:26;25.90;99.90
1391;DHT22;690;51.454;7.194;2022-07-29T14:37:54;26.10;99.90
1391;DHT22;690;51.454;7.194;2022-07-29T14:40:21;26.10;99.90
1391;DHT22;690;51.454;7.194;2022-07-29T14:42:48;26.20;99.90
1391;DHT22;690;51.454;7.194;2022-07-29T14:45:15;26.40;99.90
1391;DHT22;690;51.454;7.194;2022-07-29T14:47:44;26.60;99.90
1391;DHT22;690;51.454;7.194;2022-07-29T14:50:11;26.80;99.90
1391;DHT22;690;51.454;7.194;2022-07-29T14:52:39;26.90;99.90
1391;DHT22;690;51.454;7.194;2022-07-29T14:55:06;26.90;99.90
1391;DHT22;690;51.454;7.194;2022-07-29T14:57:34;26.90;99.90
1391;DHT22;690;51.454;7.194;2022-07-29T15:00:01;26.90;99.90
1391;DHT22;690;51.454;7.194;2022-07-29T15:02:29;26.80;99.90
1391;DHT22;690;51.454;7.194;2022-07-29T15:04:57;26.80;99.90
1391;DHT22;690;51.454;7.194;2022-07-29T15:07:24;26.80;99.90
1391;DHT22;690;51.454;7.194;2022-07-29T15:09:52;26.90;99.90
1391;DHT22;690;51.454;7.194;2022-07-29T15:12:19;26.90;99.90
1391;DHT22;690;51.454;7.194;2022-07-29T15:14:46;27.00;99.90
1391;DHT22;690;51.454;7.194;2022-07-29T15:17:13;27.00;99.90
1391;DHT22;690;51.454;7.194;2022-07-29T15:19:40;27.10;99.90
1391;DHT22;690;51.454;7.194;2022-07-29T15:22:09;27.30;99.90
1391;DHT22;690;51.454;7.194;2022-07-29T15:24:36;27.50;99.90
1391;DHT22;690;51.454;7.194;2022-07-29T15:27:03;27.60;99.90
1391;DHT22;690;51.454;7.194;2022-07-29T15:29:30;27.80;99.90
1391;DHT22;690;51.454;7.194;2022-07-29T15:31:58;27.90;99.90
1391;DHT22;690;51.454;7.194;2022-07-29T15:34:25;28.10;99.90
1391;DHT22;690;51.454;7.194;2022-07-29T15:36:52;28.30;99.90
1391;DHT22;690;51.454;7.194;2022-07-29T15:39:21;28.60;99.90
1391;DHT22;690;51.454;7.194;2022-07-29T15:41:49;29.00;99.90
1391;DHT22;690;51.454;7.194;2022-07-29T15:44:16;29.60;99.90
1391;DHT22;690;51.454;7.194;2022-07-29T15:46:43;30.10;99.90
1391;DHT22;690;51.454;7.194;2022-07-29T15:49:27;30.20;99.90
1391;DHT22;690;51.454;7.194;2022-07-29T15:51:57;30.10;99.90
1391;DHT22;690;51.454;7.194;2022-07-29T15:54:27;30.00;99.90
1391;DHT22;690;51.454;7.194;2022-07-29T15:56:54;29.70;99.90
1391;DHT22;690;51.454;7.194;2022-07-29T15:59:22;29.60;99.90
1391;DHT22;690;51.454;7.194;2022-07-29T16:01:49;29.40;99.90
1391;DHT22;690;51.454;7.194;2022-07-29T16:04:16;29.30;99.90
1391;DHT22;690;51.454;7.194;2022-07-29T16:06:45;29.40;99.90
1391;DHT22;690;51.454;7.194;2022-07-29T16:09:12;29.40;99.90
1391;DHT22;690;51.454;7.194;2022-07-29T16:11:41;29.40;99.90
1391;DHT22;690;51.454;7.194;2022-07-29T16:14:08;29.30;99.90
1391;DHT22;690;51.454;7.194;2022-07-29T16:16:36;29.20;99.90
1391;DHT22;690;51.454;7.194;2022-07-29T16:19:04;29.10;99.90
1391;DHT22;690;51.454;7.194;2022-07-29T16:21:31;29.00;99.90
1391;DHT22;690;51.454;7.194;2022-07-29T16:24:00;29.00;99.90
1391;DHT22;690;51.454;7.194;2022-07-29T16:26:27;29.10;99.90
1391;DHT22;690;51.454;7.194;2022-07-29T16:28:56;29.20;99.90
1391;DHT22;690;51.454;7.194;2022-07-29T16:31:24;29.40;99.90
1391;DHT22;690;51.454;7.194;2022-07-29T16:33:51;29.60;99.90